sensor_id;sensor_type;location;lat;lon;timestamp;P1;durP1;ratioP1;P2;durP2;ratioP2
8213;SDS011;4148;47.974;7.824;2022-08-25T00:00:16;3.53;;;3.23;;
8213;SDS011;4148;47.974;7.824;2022-08-25T00:02:45;3.63;;;3.33;;
8213;SDS011;4148;47.974;7.824;2022-08-25T00:05:23;4.20;;;3.80;;
8213;SDS011;4148;47.974;7.824;2022-08-25T00:07:54;3.67;;;3.37;;
8213;SDS011;4148;47.974;7.824;2022-08-25T00:10:22;3.63;;;3.33;;
8213;SDS011;4148;47.974;7.824;2022-08-25T00:12:52;3.50;;;2.95;;
8213;SDS011;4148;47.974;7.824;2022-08-25T00:15:20;3.73;;;3.30;;
8213;SDS011;4148;47.974;7.824;2022-08-25T00:17:48;3.83;;;3.50;;
8213;SDS011;4148;47.974;7.824;2022-08-25T00:20:17;3.55;;;3.25;;
8213;SDS011;4148;47.974;7.824;2022-08-25T00:22:45;3.67;;;3.37;;
8213;SDS011;4148;47.974;7.824;2022-08-25T00:25:14;3.57;;;3.20;;
8213;SDS011;4148;47.974;7.824;2022-08-25T00:27:42;4.00;;;3.33;;
8213;SDS011;4148;47.974;7.824;2022-08-25T00:30:13;4.13;;;3.40;;
8213;SDS011;4148;47.974;7.824;2022-08-25T00:32:42;4.30;;;3.33;;
8213;SDS011;4148;47.974;7.824;2022-08-25T00:35:23;3.30;;;3.00;;
8213;SDS011;4148;47.974;7.824;2022-08-25T00:37:51;6.07;;;2.90;;
8213;SDS011;4148;47.974;7.824;2022-08-25T00:40:19;3.23;;;2.90;;
8213;SDS011;4148;47.974;7.824;2022-08-25T00:42:48;4.03;;;3.53;;
8213;SDS011;4148;47.974;7.824;2022-08-25T00:45:17;3.80;;;3.40;;
8213;SDS011;4148;47.974;7.824;2022-08-25T00:47:45;4.50;;;3.13;;
8213;SDS011;4148;47.974;7.824;2022-08-25T00:50:13;4.80;;;3.60;;
8213;SDS011;4148;47.974;7.824;2022-08-25T00:52:43;3.90;;;3.60;;
8213;SDS011;4148;47.974;7.824;2022-08-25T00:55:15;3.30;;;3.03;;
8213;SDS011;4148;47.974;7.824;2022-08-25T00:57:49;3.60;;;3.30;;
8213;SDS011;4148;47.974;7.824;2022-08-25T01:00:24;3.80;;;3.50;;
8213;SDS011;4148;47.974;7.824;2022-08-25T01:02:54;4.10;;;3.47;;
8213;SDS011;4148;47.974;7.824;2022-08-25T01:05:23;5.23;;;3.00;;
8213;SDS011;4148;47.974;7.824;2022-08-25T01:07:52;3.80;;;3.15;;
8213;SDS011;4148;47.974;7.824;2022-08-25T01:10:24;4.20;;;3.40;;
8213;SDS011;4148;47.974;7.824;2022-08-25T01:12:53;5.10;;;3.90;;
8213;SDS011;4148;47.974;7.824;2022-08-25T01:15:27;4.03;;;3.63;;
8213;SDS011;4148;47.974;7.824;2022-08-25T01:17:56;4.60;;;3.73;;
8213;SDS011;4148;47.974;7.824;2022-08-25T01:20:27;3.90;;;3.50;;
8213;SDS011;4148;47.974;7.824;2022-08-25T01:22:59;3.73;;;3.33;;
8213;SDS011;4148;47.974;7.824;2022-08-25T01:25:29;3.80;;;3.20;;
8213;SDS011;4148;47.974;7.824;2022-08-25T01:28:06;3.43;;;3.13;;
8213;SDS011;4148;47.974;7.824;2022-08-25T01:30:35;3.97;;;3.57;;
8213;SDS011;4148;47.974;7.824;2022-08-25T01:33:04;4.03;;;3.27;;
8213;SDS011;4148;47.974;7.824;2022-08-25T01:35:33;4.80;;;3.70;;
8213;SDS011;4148;47.974;7.824;2022-08-25T01:38:04;4.20;;;3.73;;
8213;SDS011;4148;47.974;7.824;2022-08-25T01:40:33;5.80;;;3.47;;
8213;SDS011;4148;47.974;7.824;2022-08-25T01:43:06;4.77;;;4.37;;
8213;SDS011;4148;47.974;7.824;2022-08-25T01:45:39;4.63;;;3.70;;
8213;SDS011;4148;47.974;7.824;2022-08-25T01:48:09;4.03;;;3.50;;
8213;SDS011;4148;47.974;7.824;2022-08-25T01:50:38;3.43;;;3.13;;
8213;SDS011;4148;47.974;7.824;2022-08-25T01:53:10;4.40;;;3.83;;
8213;SDS011;4148;47.974;7.824;2022-08-25T01:55:40;4.18;;;3.60;;
8213;SDS011;4148;47.974;7.824;2022-08-25T01:58:19;5.27;;;3.53;;
8213;SDS011;4148;47.974;7.824;2022-08-25T02:00:49;4.20;;;3.07;;
8213;SDS011;4148;47.974;7.824;2022-08-25T02:03:19;3.97;;;3.60;;
8213;SDS011;4148;47.974;7.824;2022-08-25T02:05:47;4.40;;;3.60;;
8213;SDS011;4148;47.974;7.824;2022-08-25T02:08:16;3.90;;;3.50;;
8213;SDS011;4148;47.974;7.824;2022-08-25T02:10:44;3.50;;;3.20;;
8213;SDS011;4148;47.974;7.824;2022-08-25T02:13:13;6.93;;;3.97;;
8213;SDS011;4148;47.974;7.824;2022-08-25T02:15:41;4.30;;;3.40;;
8213;SDS011;4148;47.974;7.824;2022-08-25T02:18:11;5.00;;;3.70;;
8213;SDS011;4148;47.974;7.824;2022-08-25T02:20:39;3.80;;;3.23;;
8213;SDS011;4148;47.974;7.824;2022-08-25T02:23:07;4.30;;;3.40;;
8213;SDS011;4148;47.974;7.824;2022-08-25T02:25:37;3.60;;;3.30;;
8213;SDS011;4148;47.974;7.824;2022-08-25T02:28:06;4.40;;;3.77;;
8213;SDS011;4148;47.974;7.824;2022-08-25T02:30:36;4.13;;;3.73;;
8213;SDS011;4148;47.974;7.824;2022-08-25T02:33:06;3.67;;;3.37;;
8213;SDS011;4148;47.974;7.824;2022-08-25T02:35:34;5.37;;;3.57;;
8213;SDS011;4148;47.974;7.824;2022-08-25T02:38:02;4.40;;;3.60;;
8213;SDS011;4148;47.974;7.824;2022-08-25T02:40:32;4.22;;;3.60;;
8213;SDS011;4148;47.974;7.824;2022-08-25T02:43:01;3.80;;;3.20;;
8213;SDS011;4148;47.974;7.824;2022-08-25T02:45:30;4.53;;;3.50;;
8213;SDS011;4148;47.974;7.824;2022-08-25T02:47:58;4.20;;;3.47;;
8213;SDS011;4148;47.974;7.824;2022-08-25T02:50:26;3.90;;;3.13;;
8213;SDS011;4148;47.974;7.824;2022-08-25T02:52:53;4.23;;;3.80;;
8213;SDS011;4148;47.974;7.824;2022-08-25T02:55:21;3.50;;;3.20;;
8213;SDS011;4148;47.974;7.824;2022-08-25T02:57:49;5.20;;;3.30;;
8213;SDS011;4148;47.974;7.824;2022-08-25T03:00:19;4.23;;;3.20;;
8213;SDS011;4148;47.974;7.824;2022-08-25T03:02:48;4.50;;;3.93;;
8213;SDS011;4148;47.974;7.824;2022-08-25T03:05:16;4.10;;;3.47;;
8213;SDS011;4148;47.974;7.824;2022-08-25T03:07:44;5.67;;;4.10;;
8213;SDS011;4148;47.974;7.824;2022-08-25T03:10:13;6.70;;;3.53;;
8213;SDS011;4148;47.974;7.824;2022-08-25T03:12:44;4.27;;;3.87;;
8213;SDS011;4148;47.974;7.824;2022-08-25T03:15:13;3.80;;;3.40;;
8213;SDS011;4148;47.974;7.824;2022-08-25T03:17:44;3.53;;;3.23;;
8213;SDS011;4148;47.974;7.824;2022-08-25T03:20:15;5.70;;;3.47;;
8213;SDS011;4148;47.974;7.824;2022-08-25T03:22:43;4.17;;;3.63;;
8213;SDS011;4148;47.974;7.824;2022-08-25T03:25:11;4.20;;;3.80;;
8213;SDS011;4148;47.974;7.824;2022-08-25T03:27:57;5.45;;;3.60;;
8213;SDS011;4148;47.974;7.824;2022-08-25T03:30:27;4.30;;;3.90;;
8213;SDS011;4148;47.974;7.824;2022-08-25T03:32:57;5.73;;;3.50;;
8213;SDS011;4148;47.974;7.824;2022-08-25T03:35:25;4.00;;;3.30;;
8213;SDS011;4148;47.974;7.824;2022-08-25T03:37:56;4.40;;;3.40;;
8213;SDS011;4148;47.974;7.824;2022-08-25T03:40:24;3.90;;;3.60;;
8213;SDS011;4148;47.974;7.824;2022-08-25T03:42:52;4.27;;;3.87;;
8213;SDS011;4148;47.974;7.824;2022-08-25T03:45:21;4.37;;;3.97;;
8213;SDS011;4148;47.974;7.824;2022-08-25T03:47:50;4.70;;;3.95;;
8213;SDS011;4148;47.974;7.824;2022-08-25T03:50:21;4.50;;;4.10;;
8213;SDS011;4148;47.974;7.824;2022-08-25T03:52:50;5.40;;;3.70;;
8213;SDS011;4148;47.974;7.824;2022-08-25T03:55:19;3.97;;;3.60;;
8213;SDS011;4148;47.974;7.824;2022-08-25T03:57:49;6.40;;;4.10;;
8213;SDS011;4148;47.974;7.824;2022-08-25T04:00:17;4.20;;;3.83;;
8213;SDS011;4148;47.974;7.824;2022-08-25T04:02:46;4.50;;;3.70;;
8213;SDS011;4148;47.974;7.824;2022-08-25T04:05:14;4.83;;;3.70;;
8213;SDS011;4148;47.974;7.824;2022-08-25T04:07:43;4.55;;;4.15;;
8213;SDS011;4148;47.974;7.824;2022-08-25T04:10:11;3.80;;;3.50;;
8213;SDS011;4148;47.974;7.824;2022-08-25T04:12:40;4.17;;;3.30;;
8213;SDS011;4148;47.974;7.824;2022-08-25T04:15:08;4.32;;;3.92;;
8213;SDS011;4148;47.974;7.824;2022-08-25T04:17:37;5.20;;;4.27;;
8213;SDS011;4148;47.974;7.824;2022-08-25T04:20:06;4.43;;;4.00;;
8213;SDS011;4148;47.974;7.824;2022-08-25T04:22:39;5.13;;;3.97;;
8213;SDS011;4148;47.974;7.824;2022-08-25T04:25:11;4.47;;;3.63;;
8213;SDS011;4148;47.974;7.824;2022-08-25T04:27:39;7.20;;;4.60;;
8213;SDS011;4148;47.974;7.824;2022-08-25T04:30:08;4.22;;;3.83;;
8213;SDS011;4148;47.974;7.824;2022-08-25T04:32:37;4.90;;;4.30;;
8213;SDS011;4148;47.974;7.824;2022-08-25T04:35:05;5.20;;;4.00;;
8213;SDS011;4148;47.974;7.824;2022-08-25T04:37:34;4.80;;;4.30;;
8213;SDS011;4148;47.974;7.824;2022-08-25T04:40:02;4.70;;;4.30;;
8213;SDS011;4148;47.974;7.824;2022-08-25T04:42:32;4.30;;;3.90;;
8213;SDS011;4148;47.974;7.824;2022-08-25T04:45:00;4.80;;;4.30;;
8213;SDS011;4148;47.974;7.824;2022-08-25T04:47:29;4.70;;;3.80;;
8213;SDS011;4148;47.974;7.824;2022-08-25T04:49:57;4.33;;;3.93;;
8213;SDS011;4148;47.974;7.824;2022-08-25T04:52:25;8.40;;;3.80;;
8213;SDS011;4148;47.974;7.824;2022-08-25T04:54:52;4.10;;;3.70;;
8213;SDS011;4148;47.974;7.824;2022-08-25T04:57:21;7.65;;;4.60;;
8213;SDS011;4148;47.974;7.824;2022-08-25T04:59:50;5.97;;;3.97;;
8213;SDS011;4148;47.974;7.824;2022-08-25T05:02:19;4.40;;;4.00;;
8213;SDS011;4148;47.974;7.824;2022-08-25T05:04:47;4.23;;;3.50;;
8213;SDS011;4148;47.974;7.824;2022-08-25T05:07:15;5.33;;;4.37;;
8213;SDS011;4148;47.974;7.824;2022-08-25T05:09:43;6.03;;;4.47;;
8213;SDS011;4148;47.974;7.824;2022-08-25T05:12:11;4.70;;;4.20;;
8213;SDS011;4148;47.974;7.824;2022-08-25T05:14:39;5.00;;;4.10;;
8213;SDS011;4148;47.974;7.824;2022-08-25T05:17:08;4.10;;;3.80;;
8213;SDS011;4148;47.974;7.824;2022-08-25T05:19:36;4.83;;;4.10;;
8213;SDS011;4148;47.974;7.824;2022-08-25T05:22:03;4.80;;;4.37;;
8213;SDS011;4148;47.974;7.824;2022-08-25T05:24:32;4.80;;;3.80;;
8213;SDS011;4148;47.974;7.824;2022-08-25T05:27:00;7.53;;;4.60;;
8213;SDS011;4148;47.974;7.824;2022-08-25T05:29:29;4.93;;;4.18;;
8213;SDS011;4148;47.974;7.824;2022-08-25T05:31:56;4.43;;;4.03;;
8213;SDS011;4148;47.974;7.824;2022-08-25T05:34:26;3.87;;;3.40;;
8213;SDS011;4148;47.974;7.824;2022-08-25T05:36:55;5.88;;;3.97;;
8213;SDS011;4148;47.974;7.824;2022-08-25T05:39:25;6.03;;;3.97;;
8213;SDS011;4148;47.974;7.824;2022-08-25T05:41:53;5.57;;;4.40;;
8213;SDS011;4148;47.974;7.824;2022-08-25T05:44:21;4.30;;;3.90;;
8213;SDS011;4148;47.974;7.824;2022-08-25T05:46:48;6.20;;;4.20;;
8213;SDS011;4148;47.974;7.824;2022-08-25T05:49:16;4.30;;;3.90;;
8213;SDS011;4148;47.974;7.824;2022-08-25T05:51:46;4.20;;;3.80;;
8213;SDS011;4148;47.974;7.824;2022-08-25T05:54:14;4.60;;;4.20;;
8213;SDS011;4148;47.974;7.824;2022-08-25T05:56:42;5.55;;;4.28;;
8213;SDS011;4148;47.974;7.824;2022-08-25T05:59:11;5.75;;;4.25;;
8213;SDS011;4148;47.974;7.824;2022-08-25T06:01:39;5.73;;;4.70;;
8213;SDS011;4148;47.974;7.824;2022-08-25T06:04:24;5.20;;;4.70;;
8213;SDS011;4148;47.974;7.824;2022-08-25T06:06:53;5.27;;;4.43;;
8213;SDS011;4148;47.974;7.824;2022-08-25T06:09:21;5.43;;;4.23;;
8213;SDS011;4148;47.974;7.824;2022-08-25T06:11:49;5.77;;;4.30;;
8213;SDS011;4148;47.974;7.824;2022-08-25T06:14:20;4.80;;;4.13;;
8213;SDS011;4148;47.974;7.824;2022-08-25T06:16:48;6.00;;;4.30;;
8213;SDS011;4148;47.974;7.824;2022-08-25T06:19:17;4.57;;;4.13;;
8213;SDS011;4148;47.974;7.824;2022-08-25T06:21:46;4.40;;;4.00;;
8213;SDS011;4148;47.974;7.824;2022-08-25T06:24:15;6.90;;;5.00;;
8213;SDS011;4148;47.974;7.824;2022-08-25T06:26:43;5.23;;;4.03;;
8213;SDS011;4148;47.974;7.824;2022-08-25T06:29:11;5.90;;;4.60;;
8213;SDS011;4148;47.974;7.824;2022-08-25T06:31:40;5.70;;;4.30;;
8213;SDS011;4148;47.974;7.824;2022-08-25T06:34:08;7.57;;;4.80;;
8213;SDS011;4148;47.974;7.824;2022-08-25T06:36:37;5.83;;;4.30;;
8213;SDS011;4148;47.974;7.824;2022-08-25T06:39:05;6.60;;;4.83;;
8213;SDS011;4148;47.974;7.824;2022-08-25T06:41:37;5.30;;;4.38;;
8213;SDS011;4148;47.974;7.824;2022-08-25T06:44:05;5.30;;;4.60;;
8213;SDS011;4148;47.974;7.824;2022-08-25T06:46:33;9.82;;;4.70;;
8213;SDS011;4148;47.974;7.824;2022-08-25T06:49:02;4.80;;;3.70;;
8213;SDS011;4148;47.974;7.824;2022-08-25T06:51:31;4.70;;;4.20;;
8213;SDS011;4148;47.974;7.824;2022-08-25T06:54:01;4.93;;;4.20;;
8213;SDS011;4148;47.974;7.824;2022-08-25T06:56:30;4.83;;;4.17;;
8213;SDS011;4148;47.974;7.824;2022-08-25T06:59:00;4.50;;;4.10;;
8213;SDS011;4148;47.974;7.824;2022-08-25T07:01:29;5.53;;;4.88;;
8213;SDS011;4148;47.974;7.824;2022-08-25T07:03:58;5.20;;;4.70;;
8213;SDS011;4148;47.974;7.824;2022-08-25T07:06:28;5.50;;;4.93;;
8213;SDS011;4148;47.974;7.824;2022-08-25T07:08:58;4.93;;;4.00;;
8213;SDS011;4148;47.974;7.824;2022-08-25T07:11:26;6.65;;;4.60;;
8213;SDS011;4148;47.974;7.824;2022-08-25T07:13:54;4.60;;;4.10;;
8213;SDS011;4148;47.974;7.824;2022-08-25T07:16:24;7.37;;;4.40;;
8213;SDS011;4148;47.974;7.824;2022-08-25T07:18:56;6.03;;;4.63;;
8213;SDS011;4148;47.974;7.824;2022-08-25T07:21:26;4.73;;;4.17;;
8213;SDS011;4148;47.974;7.824;2022-08-25T07:24:02;4.80;;;4.40;;
8213;SDS011;4148;47.974;7.824;2022-08-25T07:26:31;4.30;;;3.90;;
8213;SDS011;4148;47.974;7.824;2022-08-25T07:29:05;6.27;;;4.10;;
8213;SDS011;4148;47.974;7.824;2022-08-25T07:31:36;4.57;;;4.17;;
8213;SDS011;4148;47.974;7.824;2022-08-25T07:34:04;5.07;;;4.23;;
8213;SDS011;4148;47.974;7.824;2022-08-25T07:36:51;4.13;;;3.70;;
8213;SDS011;4148;47.974;7.824;2022-08-25T07:39:18;6.07;;;4.30;;
8213;SDS011;4148;47.974;7.824;2022-08-25T07:41:47;4.13;;;3.80;;
8213;SDS011;4148;47.974;7.824;2022-08-25T07:44:17;4.80;;;4.40;;
8213;SDS011;4148;47.974;7.824;2022-08-25T07:46:47;4.63;;;4.20;;
8213;SDS011;4148;47.974;7.824;2022-08-25T07:49:19;5.77;;;3.83;;
8213;SDS011;4148;47.974;7.824;2022-08-25T07:51:49;5.10;;;4.57;;
8213;SDS011;4148;47.974;7.824;2022-08-25T07:54:31;5.07;;;4.50;;
8213;SDS011;4148;47.974;7.824;2022-08-25T07:57:03;4.90;;;4.40;;
8213;SDS011;4148;47.974;7.824;2022-08-25T07:59:33;7.57;;;5.00;;
8213;SDS011;4148;47.974;7.824;2022-08-25T08:02:07;4.50;;;4.10;;
8213;SDS011;4148;47.974;7.824;2022-08-25T08:04:44;5.50;;;4.57;;
8213;SDS011;4148;47.974;7.824;2022-08-25T08:07:15;9.43;;;3.83;;
8213;SDS011;4148;47.974;7.824;2022-08-25T08:09:44;6.13;;;4.33;;
8213;SDS011;4148;47.974;7.824;2022-08-25T08:12:15;6.10;;;3.70;;
8213;SDS011;4148;47.974;7.824;2022-08-25T08:14:44;4.93;;;4.53;;
8213;SDS011;4148;47.974;7.824;2022-08-25T08:17:13;4.10;;;3.70;;
8213;SDS011;4148;47.974;7.824;2022-08-25T08:19:41;5.53;;;4.45;;
8213;SDS011;4148;47.974;7.824;2022-08-25T08:22:11;4.93;;;4.53;;
8213;SDS011;4148;47.974;7.824;2022-08-25T08:24:41;6.40;;;4.97;;
8213;SDS011;4148;47.974;7.824;2022-08-25T08:27:21;4.83;;;4.33;;
8213;SDS011;4148;47.974;7.824;2022-08-25T08:29:49;6.17;;;4.17;;
8213;SDS011;4148;47.974;7.824;2022-08-25T08:32:20;5.53;;;4.00;;
8213;SDS011;4148;47.974;7.824;2022-08-25T08:34:56;5.50;;;4.50;;
8213;SDS011;4148;47.974;7.824;2022-08-25T08:37:24;4.87;;;4.47;;
8213;SDS011;4148;47.974;7.824;2022-08-25T08:39:52;4.82;;;4.43;;
8213;SDS011;4148;47.974;7.824;2022-08-25T08:42:28;7.00;;;4.40;;
8213;SDS011;4148;47.974;7.824;2022-08-25T08:48:12;6.32;;;4.13;;
8213;SDS011;4148;47.974;7.824;2022-08-25T08:50:51;4.90;;;4.40;;
8213;SDS011;4148;47.974;7.824;2022-08-25T08:53:26;12.90;;;4.63;;
8213;SDS011;4148;47.974;7.824;2022-08-25T08:56:01;5.00;;;4.60;;
8213;SDS011;4148;47.974;7.824;2022-08-25T08:58:38;4.40;;;4.00;;
8213;SDS011;4148;47.974;7.824;2022-08-25T09:01:10;4.97;;;4.30;;
8213;SDS011;4148;47.974;7.824;2022-08-25T09:03:46;5.93;;;4.50;;
8213;SDS011;4148;47.974;7.824;2022-08-25T09:06:21;5.00;;;4.60;;
8213;SDS011;4148;47.974;7.824;2022-08-25T09:08:53;5.30;;;4.63;;
8213;SDS011;4148;47.974;7.824;2022-08-25T09:11:26;6.10;;;4.13;;
8213;SDS011;4148;47.974;7.824;2022-08-25T09:14:07;4.07;;;3.67;;
8213;SDS011;4148;47.974;7.824;2022-08-25T09:16:45;7.00;;;4.70;;
8213;SDS011;4148;47.974;7.824;2022-08-25T09:19:28;5.07;;;4.47;;
8213;SDS011;4148;47.974;7.824;2022-08-25T09:22:26;4.80;;;4.40;;
8213;SDS011;4148;47.974;7.824;2022-08-25T09:25:06;4.57;;;4.17;;
8213;SDS011;4148;47.974;7.824;2022-08-25T09:27:57;4.40;;;4.00;;
8213;SDS011;4148;47.974;7.824;2022-08-25T09:30:36;4.90;;;3.90;;
8213;SDS011;4148;47.974;7.824;2022-08-25T09:33:10;4.70;;;4.30;;
8213;SDS011;4148;47.974;7.824;2022-08-25T09:35:47;4.53;;;4.10;;
8213;SDS011;4148;47.974;7.824;2022-08-25T09:38:19;6.70;;;4.07;;
8213;SDS011;4148;47.974;7.824;2022-08-25T09:40:48;4.70;;;4.30;;
8213;SDS011;4148;47.974;7.824;2022-08-25T09:43:19;4.63;;;4.23;;
8213;SDS011;4148;47.974;7.824;2022-08-25T09:45:49;5.80;;;4.13;;
8213;SDS011;4148;47.974;7.824;2022-08-25T09:48:25;5.23;;;4.60;;
8213;SDS011;4148;47.974;7.824;2022-08-25T09:50:57;4.77;;;4.37;;
8213;SDS011;4148;47.974;7.824;2022-08-25T09:53:28;6.23;;;4.10;;
8213;SDS011;4148;47.974;7.824;2022-08-25T09:55:59;6.30;;;4.40;;
8213;SDS011;4148;47.974;7.824;2022-08-25T09:58:32;8.37;;;4.90;;
8213;SDS011;4148;47.974;7.824;2022-08-25T10:03:54;5.17;;;4.43;;
8213;SDS011;4148;47.974;7.824;2022-08-25T10:06:26;5.13;;;4.60;;
8213;SDS011;4148;47.974;7.824;2022-08-25T10:08:57;8.63;;;4.60;;
8213;SDS011;4148;47.974;7.824;2022-08-25T10:14:15;4.10;;;3.70;;
8213;SDS011;4148;47.974;7.824;2022-08-25T10:17:10;4.25;;;3.95;;
8213;SDS011;4148;47.974;7.824;2022-08-25T10:19:40;9.87;;;4.70;;
8213;SDS011;4148;47.974;7.824;2022-08-25T10:22:10;7.50;;;4.20;;
8213;SDS011;4148;47.974;7.824;2022-08-25T10:24:46;4.30;;;3.90;;
8213;SDS011;4148;47.974;7.824;2022-08-25T10:27:17;4.53;;;3.90;;
8213;SDS011;4148;47.974;7.824;2022-08-25T10:30:05;4.57;;;4.17;;
8213;SDS011;4148;47.974;7.824;2022-08-25T10:32:43;5.15;;;4.65;;
8213;SDS011;4148;47.974;7.824;2022-08-25T10:35:28;4.50;;;4.10;;
8213;SDS011;4148;47.974;7.824;2022-08-25T10:38:06;4.82;;;4.30;;
8213;SDS011;4148;47.974;7.824;2022-08-25T10:40:49;5.23;;;4.47;;
8213;SDS011;4148;47.974;7.824;2022-08-25T10:43:25;4.57;;;4.17;;
8213;SDS011;4148;47.974;7.824;2022-08-25T10:46:01;4.70;;;4.20;;
8213;SDS011;4148;47.974;7.824;2022-08-25T10:48:46;4.20;;;3.70;;
8213;SDS011;4148;47.974;7.824;2022-08-25T10:51:28;4.63;;;3.67;;
8213;SDS011;4148;47.974;7.824;2022-08-25T10:54:12;4.00;;;3.70;;
8213;SDS011;4148;47.974;7.824;2022-08-25T10:56:57;3.20;;;3.00;;
8213;SDS011;4148;47.974;7.824;2022-08-25T10:59:42;4.00;;;3.70;;
8213;SDS011;4148;47.974;7.824;2022-08-25T11:02:25;4.00;;;3.60;;
8213;SDS011;4148;47.974;7.824;2022-08-25T11:05:16;4.20;;;3.85;;
8213;SDS011;4148;47.974;7.824;2022-08-25T11:07:52;4.20;;;3.87;;
8213;SDS011;4148;47.974;7.824;2022-08-25T11:10:30;4.35;;;3.95;;
8213;SDS011;4148;47.974;7.824;2022-08-25T11:13:05;4.27;;;3.80;;
8213;SDS011;4148;47.974;7.824;2022-08-25T11:15:39;4.00;;;3.70;;
8213;SDS011;4148;47.974;7.824;2022-08-25T11:18:33;3.80;;;3.50;;
8213;SDS011;4148;47.974;7.824;2022-08-25T11:21:06;3.70;;;3.50;;
8213;SDS011;4148;47.974;7.824;2022-08-25T11:23:39;4.00;;;3.70;;
8213;SDS011;4148;47.974;7.824;2022-08-25T11:26:12;4.13;;;3.83;;
8213;SDS011;4148;47.974;7.824;2022-08-25T11:28:48;4.07;;;3.70;;
8213;SDS011;4148;47.974;7.824;2022-08-25T11:31:21;4.18;;;3.78;;
8213;SDS011;4148;47.974;7.824;2022-08-25T11:33:51;4.00;;;3.70;;
8213;SDS011;4148;47.974;7.824;2022-08-25T11:36:27;6.37;;;3.90;;
8213;SDS011;4148;47.974;7.824;2022-08-25T11:39:02;4.80;;;3.80;;
8213;SDS011;4148;47.974;7.824;2022-08-25T11:41:39;4.50;;;4.10;;
8213;SDS011;4148;47.974;7.824;2022-08-25T11:44:21;4.00;;;3.30;;
8213;SDS011;4148;47.974;7.824;2022-08-25T11:47:27;5.03;;;3.70;;
8213;SDS011;4148;47.974;7.824;2022-08-25T11:50:23;4.00;;;3.70;;
8213;SDS011;4148;47.974;7.824;2022-08-25T11:52:56;4.07;;;3.67;;
8213;SDS011;4148;47.974;7.824;2022-08-25T11:55:27;5.13;;;4.03;;
8213;SDS011;4148;47.974;7.824;2022-08-25T11:58:16;4.50;;;4.20;;
8213;SDS011;4148;47.974;7.824;2022-08-25T12:00:57;5.27;;;4.60;;
8213;SDS011;4148;47.974;7.824;2022-08-25T12:03:46;4.33;;;3.93;;
8213;SDS011;4148;47.974;7.824;2022-08-25T12:06:22;6.07;;;4.07;;
8213;SDS011;4148;47.974;7.824;2022-08-25T12:08:54;4.23;;;3.93;;
8213;SDS011;4148;47.974;7.824;2022-08-25T12:14:47;4.97;;;4.50;;
8213;SDS011;4148;47.974;7.824;2022-08-25T12:17:22;4.93;;;4.53;;
8213;SDS011;4148;47.974;7.824;2022-08-25T12:19:53;5.57;;;4.60;;
8213;SDS011;4148;47.974;7.824;2022-08-25T12:25:27;7.53;;;4.53;;
8213;SDS011;4148;47.974;7.824;2022-08-25T12:28:03;4.63;;;4.23;;
8213;SDS011;4148;47.974;7.824;2022-08-25T12:30:40;4.30;;;4.00;;
8213;SDS011;4148;47.974;7.824;2022-08-25T12:33:18;4.80;;;4.33;;
8213;SDS011;4148;47.974;7.824;2022-08-25T12:36:00;5.63;;;5.00;;
8213;SDS011;4148;47.974;7.824;2022-08-25T12:38:31;3.93;;;3.63;;
8213;SDS011;4148;47.974;7.824;2022-08-25T12:41:08;4.90;;;4.20;;
8213;SDS011;4148;47.974;7.824;2022-08-25T12:43:38;4.77;;;4.30;;
8213;SDS011;4148;47.974;7.824;2022-08-25T12:49:00;5.80;;;4.20;;
8213;SDS011;4148;47.974;7.824;2022-08-25T12:51:50;7.57;;;4.65;;
8213;SDS011;4148;47.974;7.824;2022-08-25T12:54:28;7.97;;;4.43;;
8213;SDS011;4148;47.974;7.824;2022-08-25T12:57:07;5.63;;;4.50;;
8213;SDS011;4148;47.974;7.824;2022-08-25T12:59:58;5.10;;;4.70;;
8213;SDS011;4148;47.974;7.824;2022-08-25T13:02:38;5.07;;;4.27;;
8213;SDS011;4148;47.974;7.824;2022-08-25T13:05:51;7.07;;;4.22;;
8213;SDS011;4148;47.974;7.824;2022-08-25T13:11:50;5.57;;;4.60;;
8213;SDS011;4148;47.974;7.824;2022-08-25T13:14:24;4.90;;;4.47;;
8213;SDS011;4148;47.974;7.824;2022-08-25T13:17:03;4.77;;;4.37;;
8213;SDS011;4148;47.974;7.824;2022-08-25T13:19:33;4.70;;;4.30;;
8213;SDS011;4148;47.974;7.824;2022-08-25T13:22:02;6.53;;;4.87;;
8213;SDS011;4148;47.974;7.824;2022-08-25T13:24:42;4.43;;;4.03;;
8213;SDS011;4148;47.974;7.824;2022-08-25T13:27:24;4.50;;;4.20;;
8213;SDS011;4148;47.974;7.824;2022-08-25T13:29:54;4.33;;;3.93;;
8213;SDS011;4148;47.974;7.824;2022-08-25T13:32:29;4.73;;;4.33;;
8213;SDS011;4148;47.974;7.824;2022-08-25T13:35:11;4.70;;;4.30;;
8213;SDS011;4148;47.974;7.824;2022-08-25T13:37:45;4.40;;;4.07;;
8213;SDS011;4148;47.974;7.824;2022-08-25T13:40:13;4.50;;;4.10;;
8213;SDS011;4148;47.974;7.824;2022-08-25T13:42:51;4.13;;;3.83;;
8213;SDS011;4148;47.974;7.824;2022-08-25T13:45:23;4.63;;;4.23;;
8213;SDS011;4148;47.974;7.824;2022-08-25T13:47:53;4.07;;;3.60;;
8213;SDS011;4148;47.974;7.824;2022-08-25T13:50:31;3.63;;;3.23;;
8213;SDS011;4148;47.974;7.824;2022-08-25T13:53:03;4.93;;;3.63;;
8213;SDS011;4148;47.974;7.824;2022-08-25T13:55:37;3.33;;;3.10;;
8213;SDS011;4148;47.974;7.824;2022-08-25T13:58:18;5.03;;;3.30;;
8213;SDS011;4148;47.974;7.824;2022-08-25T14:01:01;5.27;;;3.30;;
8213;SDS011;4148;47.974;7.824;2022-08-25T14:03:55;4.17;;;3.77;;
8213;SDS011;4148;47.974;7.824;2022-08-25T14:06:45;3.73;;;3.40;;
8213;SDS011;4148;47.974;7.824;2022-08-25T14:09:14;3.60;;;3.00;;
8213;SDS011;4148;47.974;7.824;2022-08-25T14:11:54;3.77;;;3.40;;
8213;SDS011;4148;47.974;7.824;2022-08-25T14:14:33;3.42;;;3.13;;
8213;SDS011;4148;47.974;7.824;2022-08-25T14:17:03;3.73;;;3.40;;
8213;SDS011;4148;47.974;7.824;2022-08-25T14:19:53;2.90;;;2.70;;
8213;SDS011;4148;47.974;7.824;2022-08-25T14:22:23;3.90;;;3.60;;
8213;SDS011;4148;47.974;7.824;2022-08-25T14:24:52;3.73;;;3.33;;
8213;SDS011;4148;47.974;7.824;2022-08-25T14:27:21;3.37;;;3.00;;
8213;SDS011;4148;47.974;7.824;2022-08-25T14:29:49;3.20;;;2.90;;
8213;SDS011;4148;47.974;7.824;2022-08-25T14:32:18;3.30;;;3.00;;
8213;SDS011;4148;47.974;7.824;2022-08-25T14:34:46;2.63;;;2.43;;
8213;SDS011;4148;47.974;7.824;2022-08-25T14:37:14;3.03;;;2.83;;
8213;SDS011;4148;47.974;7.824;2022-08-25T14:39:46;5.83;;;3.50;;
8213;SDS011;4148;47.974;7.824;2022-08-25T14:42:14;3.33;;;2.37;;
8213;SDS011;4148;47.974;7.824;2022-08-25T14:44:42;2.77;;;2.57;;
8213;SDS011;4148;47.974;7.824;2022-08-25T14:47:10;2.90;;;2.60;;
8213;SDS011;4148;47.974;7.824;2022-08-25T14:49:39;5.00;;;2.63;;
8213;SDS011;4148;47.974;7.824;2022-08-25T14:52:13;3.37;;;2.13;;
8213;SDS011;4148;47.974;7.824;2022-08-25T14:54:49;2.63;;;2.43;;
8213;SDS011;4148;47.974;7.824;2022-08-25T14:57:17;2.30;;;1.87;;
8213;SDS011;4148;47.974;7.824;2022-08-25T14:59:46;2.10;;;1.90;;
8213;SDS011;4148;47.974;7.824;2022-08-25T15:02:15;1.90;;;1.60;;
8213;SDS011;4148;47.974;7.824;2022-08-25T15:04:46;2.40;;;1.77;;
8213;SDS011;4148;47.974;7.824;2022-08-25T15:07:18;2.57;;;1.77;;
8213;SDS011;4148;47.974;7.824;2022-08-25T15:10:07;1.70;;;1.60;;
8213;SDS011;4148;47.974;7.824;2022-08-25T15:12:39;2.00;;;1.80;;
8213;SDS011;4148;47.974;7.824;2022-08-25T15:15:13;2.00;;;1.80;;
8213;SDS011;4148;47.974;7.824;2022-08-25T15:17:44;1.70;;;1.60;;
8213;SDS011;4148;47.974;7.824;2022-08-25T15:20:15;1.77;;;1.53;;
8213;SDS011;4148;47.974;7.824;2022-08-25T15:22:44;2.67;;;1.70;;
8213;SDS011;4148;47.974;7.824;2022-08-25T15:25:15;2.43;;;1.57;;
8213;SDS011;4148;47.974;7.824;2022-08-25T15:27:43;1.67;;;1.57;;
8213;SDS011;4148;47.974;7.824;2022-08-25T15:30:12;2.90;;;2.67;;
8213;SDS011;4148;47.974;7.824;2022-08-25T15:32:41;2.20;;;1.70;;
8213;SDS011;4148;47.974;7.824;2022-08-25T15:35:13;1.60;;;1.50;;
8213;SDS011;4148;47.974;7.824;2022-08-25T15:37:41;1.90;;;1.73;;
8213;SDS011;4148;47.974;7.824;2022-08-25T15:40:09;3.10;;;2.10;;
8213;SDS011;4148;47.974;7.824;2022-08-25T15:42:39;2.03;;;1.80;;
8213;SDS011;4148;47.974;7.824;2022-08-25T15:45:11;2.43;;;2.10;;
8213;SDS011;4148;47.974;7.824;2022-08-25T15:47:39;1.98;;;1.77;;
8213;SDS011;4148;47.974;7.824;2022-08-25T15:50:08;2.37;;;1.93;;
8213;SDS011;4148;47.974;7.824;2022-08-25T15:52:39;1.97;;;1.77;;
8213;SDS011;4148;47.974;7.824;2022-08-25T15:55:13;1.80;;;1.70;;
8213;SDS011;4148;47.974;7.824;2022-08-25T15:57:42;2.83;;;1.90;;
8213;SDS011;4148;47.974;7.824;2022-08-25T16:00:11;2.53;;;2.00;;
8213;SDS011;4148;47.974;7.824;2022-08-25T16:02:42;2.50;;;2.30;;
8213;SDS011;4148;47.974;7.824;2022-08-25T16:05:11;3.87;;;1.90;;
8213;SDS011;4148;47.974;7.824;2022-08-25T16:07:41;1.73;;;1.63;;